Time;durP1;ratioP1;P1;durP2;ratioP2;P2;SDS_P1;SDS_P2;PMS_P1;PMS_P2;Temp;Humidity;BMP_temperature;BMP_pressure;BME280_temperature;BME280_humidity;BME280_pressure;Samples;Min_cycle;Max_cycle;Signal;HPM_P1;HPM_P2
2023/04/28 00:01:09;;;;;;;5.25;4.53;;;;;;;;;;4967049;28;92496;-73
2023/04/28 00:03:36;;;;;;;6.90;5.20;;;;;;;;;;4964303;28;92424;-73
2023/04/28 00:06:03;;;;;;;7.70;5.25;;;;;;;;;;4975060;28;93213;-73
2023/04/28 00:08:29;;;;;;;9.93;5.10;;;;;;;;;;4975301;28;92379;-73
2023/04/28 00:10:55;;;;;;;11.35;5.13;;;;;;;;;;4974197;28;92469;-73
2023/04/28 00:13:21;;;;;;;8.23;4.78;;;;;;;;;;4956948;28;93492;-73
2023/04/28 00:15:53;;;;;;;17.88;5.35;;;;;;;;;;4963028;28;93529;-73
2023/04/28 00:18:20;;;;;;;12.43;5.10;;;;;;;;;;4975296;28;92623;-73
2023/04/28 00:20:46;;;;;;;8.52;5.25;;;;;;;;;;4953731;28;96158;-73
2023/04/28 00:23:13;;;;;;;7.97;4.97;;;;;;;;;;4956060;28;92350;-74
2023/04/28 00:25:39;;;;;;;9.55;5.22;;;;;;;;;;4955977;28;94219;-74
2023/04/28 00:28:05;;;;;;;8.45;4.95;;;;;;;;;;4955609;28;93043;-73
2023/04/28 00:30:32;;;;;;;6.88;4.88;;;;;;;;;;4956375;28;92482;-73
2023/04/28 00:32:58;;;;;;;9.23;5.32;;;;;;;;;;4954255;28;93227;-73
2023/04/28 00:35:24;;;;;;;14.02;5.47;;;;;;;;;;4955368;28;93566;-73
2023/04/28 00:37:51;;;;;;;7.38;4.60;;;;;;;;;;4955921;28;91758;-73
2023/04/28 00:40:17;;;;;;;7.55;4.45;;;;;;;;;;4958283;28;92964;-73
2023/04/28 00:42:43;;;;;;;5.18;4.35;;;;;;;;;;4955160;28;92779;-73
2023/04/28 00:45:10;;;;;;;10.93;5.38;;;;;;;;;;4954185;28;95153;-73
2023/04/28 00:47:36;;;;;;;12.32;5.18;;;;;;;;;;4955472;28;93462;-74
2023/04/28 00:50:05;;;;;;;6.65;4.43;;;;;;;;;;4955498;28;92883;-73
2023/04/28 00:52:31;;;;;;;10.90;4.70;;;;;;;;;;4955584;28;93116;-73
2023/04/28 00:54:58;;;;;;;11.63;4.97;;;;;;;;;;4954776;28;93482;-73
2023/04/28 00:57:24;;;;;;;7.88;5.00;;;;;;;;;;4955484;28;92639;-73
2023/04/28 00:59:51;;;;;;;11.02;5.03;;;;;;;;;;4960689;28;92699;-73
2023/04/28 01:02:17;;;;;;;6.00;4.65;;;;;;;;;;4971064;28;92901;-72
2023/04/28 01:04:44;;;;;;;13.32;4.40;;;;;;;;;;4973930;28;93365;-73
2023/04/28 01:07:11;;;;;;;11.55;4.82;;;;;;;;;;4973796;28;93345;-73
2023/04/28 01:09:37;;;;;;;9.93;3.97;;;;;;;;;;4973159;28;95025;-73
2023/04/28 01:12:03;;;;;;;8.15;4.45;;;;;;;;;;4974590;28;96923;-73
2023/04/28 01:14:31;;;;;;;10.43;5.18;;;;;;;;;;4974450;28;93809;-73
2023/04/28 01:16:57;;;;;;;6.75;4.43;;;;;;;;;;4974805;28;92530;-73
2023/04/28 01:19:24;;;;;;;5.20;3.80;;;;;;;;;;4958536;28;94508;-73
2023/04/28 01:21:50;;;;;;;6.07;4.43;;;;;;;;;;4958072;28;94015;-73
2023/04/28 01:24:17;;;;;;;9.50;4.28;;;;;;;;;;4954925;28;94267;-73
2023/04/28 01:26:44;;;;;;;6.85;4.50;;;;;;;;;;4955113;28;92914;-73
2023/04/28 01:29:11;;;;;;;8.95;4.30;;;;;;;;;;4954895;28;92551;-73
2023/04/28 01:31:37;;;;;;;8.00;4.32;;;;;;;;;;4954475;28;93148;-73
2023/04/28 01:34:04;;;;;;;7.55;4.50;;;;;;;;;;4953193;28;95817;-73
2023/04/28 01:36:31;;;;;;;8.32;4.20;;;;;;;;;;4955338;28;92450;-73
2023/04/28 01:38:59;;;;;;;5.43;4.40;;;;;;;;;;4955025;28;93299;-73
2023/04/28 01:41:26;;;;;;;6.30;4.38;;;;;;;;;;4958131;28;93447;-73
2023/04/28 01:43:52;;;;;;;9.88;4.03;;;;;;;;;;4975508;28;92408;-73
2023/04/28 01:46:19;;;;;;;8.15;4.20;;;;;;;;;;4972873;28;94440;-73
2023/04/28 01:48:46;;;;;;;8.68;4.13;;;;;;;;;;4957408;28;92542;-73
2023/04/28 01:51:12;;;;;;;11.85;4.32;;;;;;;;;;4954991;28;92839;-73
2023/04/28 01:53:38;;;;;;;5.93;3.95;;;;;;;;;;4956691;28;93131;-73
2023/04/28 01:56:05;;;;;;;6.22;4.30;;;;;;;;;;4958158;28;92467;-73
2023/04/28 01:58:31;;;;;;;7.53;4.78;;;;;;;;;;4953141;28;94835;-73
2023/04/28 02:00:57;;;;;;;11.02;4.50;;;;;;;;;;4954231;28;94382;-73
2023/04/28 02:03:24;;;;;;;6.25;4.63;;;;;;;;;;4954417;28;92579;-74
2023/04/28 02:05:50;;;;;;;10.25;4.60;;;;;;;;;;4957376;28;94115;-73
2023/04/28 02:08:17;;;;;;;7.55;4.47;;;;;;;;;;4954005;28;92410;-73
2023/04/28 02:10:44;;;;;;;4.93;3.97;;;;;;;;;;4954889;28;94514;-73
2023/04/28 02:13:11;;;;;;;7.30;4.50;;;;;;;;;;4954873;28;94244;-73
2023/04/28 02:15:40;;;;;;;12.23;4.28;;;;;;;;;;4958382;28;91758;-73
2023/04/28 02:18:06;;;;;;;10.27;4.25;;;;;;;;;;4973940;28;92439;-73
2023/04/28 02:20:33;;;;;;;6.97;4.20;;;;;;;;;;4976135;28;92788;-72
2023/04/28 02:22:59;;;;;;;6.22;3.90;;;;;;;;;;4975771;28;95037;-73
2023/04/28 02:25:25;;;;;;;10.25;4.03;;;;;;;;;;4976982;28;95536;-73
2023/04/28 02:27:52;;;;;;;4.50;3.83;;;;;;;;;;4972290;28;93568;-73
2023/04/28 02:30:18;;;;;;;11.45;4.45;;;;;;;;;;4975294;28;94328;-74
2023/04/28 02:32:44;;;;;;;10.65;4.00;;;;;;;;;;4976701;28;93446;-74
2023/04/28 02:35:11;;;;;;;7.30;4.38;;;;;;;;;;4976861;28;92582;-73
2023/04/28 02:37:37;;;;;;;5.57;3.80;;;;;;;;;;4976550;28;93288;-74
2023/04/28 02:40:04;;;;;;;8.63;4.00;;;;;;;;;;4977258;28;93755;-74
2023/04/28 02:42:30;;;;;;;7.53;4.13;;;;;;;;;;4977052;28;92466;-74
2023/04/28 02:44:56;;;;;;;7.63;4.10;;;;;;;;;;4968711;28;93071;-74
2023/04/28 02:47:22;;;;;;;7.43;4.68;;;;;;;;;;4966501;28;95813;-74
2023/04/28 02:49:49;;;;;;;6.63;4.63;;;;;;;;;;4980091;28;92720;-73
2023/04/28 02:52:15;;;;;;;7.07;4.53;;;;;;;;;;4976470;28;94234;-74
2023/04/28 02:54:41;;;;;;;9.32;4.65;;;;;;;;;;4986942;28;92471;-74
2023/04/28 02:57:08;;;;;;;6.75;4.20;;;;;;;;;;4996602;28;93175;-73
2023/04/28 02:59:34;;;;;;;9.68;4.95;;;;;;;;;;4996581;28;94177;-74
2023/04/28 03:02:00;;;;;;;8.45;4.35;;;;;;;;;;4978490;28;92482;-74
2023/04/28 03:04:27;;;;;;;13.63;4.95;;;;;;;;;;4956890;28;93099;-74
2023/04/28 03:06:53;;;;;;;9.13;4.60;;;;;;;;;;4955087;28;93424;-74
2023/04/28 03:09:20;;;;;;;7.93;4.40;;;;;;;;;;4956879;28;92507;-74
2023/04/28 03:11:46;;;;;;;6.95;4.57;;;;;;;;;;4958183;28;95481;-74
2023/04/28 03:14:12;;;;;;;7.00;4.45;;;;;;;;;;4956883;28;92527;-74
2023/04/28 03:16:39;;;;;;;8.07;4.65;;;;;;;;;;4963101;28;93123;-74
2023/04/28 03:19:05;;;;;;;7.25;4.78;;;;;;;;;;4974175;28;93368;-74
2023/04/28 03:21:32;;;;;;;11.73;4.75;;;;;;;;;;4967772;28;92605;-74
2023/04/28 03:23:58;;;;;;;7.78;4.55;;;;;;;;;;4976420;28;93121;-74
2023/04/28 03:26:24;;;;;;;6.72;4.25;;;;;;;;;;4974675;28;93439;-74
2023/04/28 03:28:51;;;;;;;9.10;4.88;;;;;;;;;;4958633;28;91772;-74
2023/04/28 03:31:17;;;;;;;8.60;4.53;;;;;;;;;;4977420;28;92454;-75
2023/04/28 03:33:45;;;;;;;8.77;5.03;;;;;;;;;;4975745;28;92499;-74
2023/04/28 03:36:12;;;;;;;12.15;4.68;;;;;;;;;;4972931;28;94947;-74
2023/04/28 03:38:38;;;;;;;11.07;4.68;;;;;;;;;;4975243;28;94104;-74
2023/04/28 03:41:04;;;;;;;12.35;4.35;;;;;;;;;;4960067;28;92505;-74
2023/04/28 03:43:32;;;;;;;7.90;4.55;;;;;;;;;;4975594;28;94505;-74
2023/04/28 03:45:58;;;;;;;13.32;5.10;;;;;;;;;;4974963;28;94282;-72
2023/04/28 03:48:24;;;;;;;12.55;4.57;;;;;;;;;;4975459;28;92734;-74
2023/04/28 03:50:51;;;;;;;5.45;4.13;;;;;;;;;;4972505;28;94283;-74
2023/04/28 03:53:17;;;;;;;11.45;4.32;;;;;;;;;;4969030;28;92954;-74
2023/04/28 03:55:44;;;;;;;8.52;4.68;;;;;;;;;;4967912;28;93309;-73
2023/04/28 03:58:10;;;;;;;12.48;5.00;;;;;;;;;;4976033;28;93385;-74
2023/04/28 04:00:36;;;;;;;9.73;4.22;;;;;;;;;;4971334;28;94953;-73
2023/04/28 04:03:02;;;;;;;6.72;4.22;;;;;;;;;;4958100;28;96087;-74
2023/04/28 04:05:29;;;;;;;10.50;4.25;;;;;;;;;;4975033;28;93511;-74
2023/04/28 04:07:55;;;;;;;7.45;4.40;;;;;;;;;;4974192;28;92487;-74
2023/04/28 04:10:22;;;;;;;11.05;4.75;;;;;;;;;;4973707;28;93408;-74
2023/04/28 04:12:48;;;;;;;8.80;4.30;;;;;;;;;;4971996;28;93501;-74
2023/04/28 04:15:14;;;;;;;11.32;4.72;;;;;;;;;;4976486;28;92529;-74
2023/04/28 04:17:41;;;;;;;7.20;4.22;;;;;;;;;;4972885;28;92739;-73
2023/04/28 04:20:07;;;;;;;14.13;4.35;;;;;;;;;;4974354;28;92861;-74
2023/04/28 04:22:34;;;;;;;8.00;5.47;;;;;;;;;;4959439;28;93254;-74
2023/04/28 04:25:00;;;;;;;7.85;4.90;;;;;;;;;;4972978;28;96005;-74
2023/04/28 04:27:26;;;;;;;8.20;4.63;;;;;;;;;;4974570;28;92556;-74
2023/04/28 04:29:53;;;;;;;7.40;4.82;;;;;;;;;;4974161;28;93198;-74
2023/04/28 04:32:19;;;;;;;12.75;5.13;;;;;;;;;;4973615;28;94546;-74
2023/04/28 04:34:45;;;;;;;14.60;5.00;;;;;;;;;;4972750;28;92625;-74
2023/04/28 04:37:12;;;;;;;13.75;5.40;;;;;;;;;;4971308;28;93230;-74
2023/04/28 04:39:38;;;;;;;6.70;5.15;;;;;;;;;;4955329;28;92765;-74
2023/04/28 04:42:04;;;;;;;15.02;5.18;;;;;;;;;;4968104;28;93114;-74
2023/04/28 04:44:49;;;;;;;7.05;5.18;;;;;;;;;;4965838;28;93508;-72
2023/04/28 04:47:16;;;;;;;7.88;5.38;;;;;;;;;;4972833;28;92493;-74
2023/04/28 04:49:43;;;;;;;10.23;4.50;;;;;;;;;;4973169;28;95018;-74
2023/04/28 04:52:09;;;;;;;11.50;5.00;;;;;;;;;;4974482;28;93559;-75
2023/04/28 04:54:35;;;;;;;14.45;5.07;;;;;;;;;;4974863;28;92533;-74
2023/04/28 04:57:02;;;;;;;13.38;5.35;;;;;;;;;;4974411;28;93214;-74
2023/04/28 04:59:28;;;;;;;8.70;4.88;;;;;;;;;;4977511;28;93583;-74
2023/04/28 05:01:55;;;;;;;15.23;5.80;;;;;;;;;;4974693;28;92930;-74
2023/04/28 05:04:21;;;;;;;9.32;5.90;;;;;;;;;;4974410;28;93548;-74
2023/04/28 05:06:48;;;;;;;9.25;5.63;;;;;;;;;;4975030;28;91781;-74
2023/04/28 05:09:15;;;;;;;14.00;5.13;;;;;;;;;;4974202;28;92572;-73
2023/04/28 05:11:41;;;;;;;8.27;5.60;;;;;;;;;;4974739;28;93540;-74
2023/04/28 05:14:07;;;;;;;11.82;5.60;;;;;;;;;;4972741;28;94940;-74
2023/04/28 05:16:33;;;;;;;15.18;5.90;;;;;;;;;;4975644;28;95771;-73
2023/04/28 05:19:00;;;;;;;8.38;5.25;;;;;;;;;;4958325;28;93465;-75
2023/04/28 05:21:27;;;;;;;10.57;5.95;;;;;;;;;;4957619;28;92395;-75
2023/04/28 05:23:53;;;;;;;10.32;6.05;;;;;;;;;;4954654;28;93352;-74
2023/04/28 05:26:20;;;;;;;11.88;5.85;;;;;;;;;;4955178;28;92493;-74
2023/04/28 05:28:46;;;;;;;12.93;6.72;;;;;;;;;;4954826;28;94254;-73
2023/04/28 05:31:12;;;;;;;10.48;6.68;;;;;;;;;;4972013;28;92393;-74
2023/04/28 05:33:39;;;;;;;11.38;5.75;;;;;;;;;;4974333;28;92437;-76
2023/04/28 05:36:05;;;;;;;7.78;6.00;;;;;;;;;;4964223;28;93151;-75
2023/04/28 05:38:32;;;;;;;11.48;7.38;;;;;;;;;;4955438;28;95823;-74
2023/04/28 05:41:00;;;;;;;12.90;6.53;;;;;;;;;;4975044;28;92480;-73
2023/04/28 05:43:26;;;;;;;12.80;6.97;;;;;;;;;;4971609;28;93431;-73
2023/04/28 05:45:52;;;;;;;12.60;7.35;;;;;;;;;;4972860;28;94335;-73
2023/04/28 05:48:19;;;;;;;11.93;6.85;;;;;;;;;;4974852;28;93123;-73
2023/04/28 05:50:45;;;;;;;11.20;6.90;;;;;;;;;;4963576;28;94505;-73
2023/04/28 05:53:11;;;;;;;10.35;6.93;;;;;;;;;;4972298;28;92436;-73
2023/04/28 05:55:38;;;;;;;12.98;7.78;;;;;;;;;;4978070;28;93268;-73
2023/04/28 05:58:04;;;;;;;14.85;8.52;;;;;;;;;;4976793;28;93356;-73
2023/04/28 06:00:31;;;;;;;14.05;8.15;;;;;;;;;;4977922;28;92728;-73
2023/04/28 06:02:57;;;;;;;15.25;8.90;;;;;;;;;;4979269;28;94809;-73
2023/04/28 06:05:24;;;;;;;15.73;8.35;;;;;;;;;;4977937;28;92735;-73
2023/04/28 06:07:52;;;;;;;17.13;9.10;;;;;;;;;;4977689;28;93126;-73
2023/04/28 06:10:21;;;;;;;19.67;9.48;;;;;;;;;;4976712;28;93564;-73
2023/04/28 06:12:47;;;;;;;18.70;9.68;;;;;;;;;;4982887;28;92483;-71
2023/04/28 06:15:13;;;;;;;28.27;10.77;;;;;;;;;;4983592;28;92384;-72
2023/04/28 06:17:40;;;;;;;17.95;10.48;;;;;;;;;;4982059;28;94565;-72
2023/04/28 06:20:09;;;;;;;15.50;9.85;;;;;;;;;;4982918;28;91708;-73
2023/04/28 06:22:35;;;;;;;17.23;9.90;;;;;;;;;;4968278;28;92338;-74
2023/04/28 06:25:02;;;;;;;15.60;10.57;;;;;;;;;;4973407;28;92424;-72
2023/04/28 06:27:31;;;;;;;20.00;10.70;;;;;;;;;;4986678;28;94737;-73
2023/04/28 06:29:58;;;;;;;18.63;10.52;;;;;;;;;;4989858;28;92399;-73
2023/04/28 06:32:24;;;;;;;15.45;10.52;;;;;;;;;;4990358;28;92383;-72
2023/04/28 06:34:50;;;;;;;20.85;11.40;;;;;;;;;;4989549;28;92289;-73
2023/04/28 06:37:17;;;;;;;17.50;10.60;;;;;;;;;;4987615;28;92505;-72
2023/04/28 06:39:44;;;;;;;18.33;11.20;;;;;;;;;;4996712;28;92275;-74
2023/04/28 06:42:10;;;;;;;19.80;10.52;;;;;;;;;;4997415;28;92532;-74
2023/04/28 06:44:36;;;;;;;21.45;11.52;;;;;;;;;;4970185;28;92608;-74
2023/04/28 06:47:03;;;;;;;18.05;10.35;;;;;;;;;;4979750;28;92482;-74
2023/04/28 06:49:29;;;;;;;15.93;10.60;;;;;;;;;;4976789;28;93639;-74
2023/04/28 06:51:56;;;;;;;18.65;11.50;;;;;;;;;;4975324;28;94903;-75
2023/04/28 06:54:22;;;;;;;20.80;10.77;;;;;;;;;;4973406;28;95680;-75
2023/04/28 06:56:49;;;;;;;14.52;10.80;;;;;;;;;;4975409;28;93526;-75
2023/04/28 06:59:16;;;;;;;20.60;10.77;;;;;;;;;;4973759;28;92496;-74
2023/04/28 07:01:43;;;;;;;17.13;11.05;;;;;;;;;;4965495;28;93771;-74
2023/04/28 07:04:09;;;;;;;21.13;11.65;;;;;;;;;;4961185;28;93523;-75
2023/04/28 07:06:36;;;;;;;19.33;11.15;;;;;;;;;;4972359;28;92513;-74
2023/04/28 07:09:03;;;;;;;20.67;11.85;;;;;;;;;;4978189;28;93195;-75
2023/04/28 07:11:32;;;;;;;20.27;11.70;;;;;;;;;;4974783;28;92744;-76
2023/04/28 07:13:58;;;;;;;23.88;12.00;;;;;;;;;;4972903;28;93725;-75
2023/04/28 07:16:24;;;;;;;23.52;11.75;;;;;;;;;;4970045;28;96426;-76
2023/04/28 07:18:51;;;;;;;17.02;11.60;;;;;;;;;;4972493;28;93322;-75
2023/04/28 07:21:17;;;;;;;17.67;11.77;;;;;;;;;;4967894;28;93261;-75
2023/04/28 07:23:44;;;;;;;20.13;12.27;;;;;;;;;;4966045;28;94345;-75
2023/04/28 07:26:11;;;;;;;19.98;11.95;;;;;;;;;;4967063;28;93329;-75
2023/04/28 07:28:39;;;;;;;19.60;12.25;;;;;;;;;;4977278;28;93233;-76
2023/04/28 07:31:06;;;;;;;20.95;12.13;;;;;;;;;;4973289;28;92564;-75
2023/04/28 07:33:32;;;;;;;18.02;12.15;;;;;;;;;;4969813;28;92951;-76
2023/04/28 07:35:59;;;;;;;22.73;12.45;;;;;;;;;;4964412;28;93518;-75
2023/04/28 07:38:25;;;;;;;17.65;12.45;;;;;;;;;;4973893;28;92431;-75
2023/04/28 07:40:52;;;;;;;19.25;12.07;;;;;;;;;;4971978;28;94856;-76
2023/04/28 07:43:18;;;;;;;19.83;13.68;;;;;;;;;;4968842;28;93382;-76
2023/04/28 07:45:47;;;;;;;23.20;13.65;;;;;;;;;;4971508;28;93092;-76
2023/04/28 07:48:14;;;;;;;19.10;13.23;;;;;;;;;;4930783;28;1156332;-77
2023/04/28 07:50:41;;;;;;;20.02;12.85;;;;;;;;;;4963035;28;94369;-76
2023/04/28 07:53:07;;;;;;;22.00;13.40;;;;;;;;;;4959470;28;96140;-77
2023/04/28 07:55:33;;;;;;;20.17;13.20;;;;;;;;;;4962830;28;93420;-75
2023/04/28 07:58:00;;;;;;;28.20;14.00;;;;;;;;;;4975950;28;91708;-76
2023/04/28 08:00:26;;;;;;;19.95;13.57;;;;;;;;;;4971540;28;93104;-75
2023/04/28 08:02:53;;;;;;;25.90;13.27;;;;;;;;;;4963773;28;94501;-77
2023/04/28 08:05:19;;;;;;;24.60;14.55;;;;;;;;;;4974349;28;94847;-76
2023/04/28 08:07:46;;;;;;;24.52;14.00;;;;;;;;;;4964538;28;94287;-76
2023/04/28 08:10:12;;;;;;;27.92;14.63;;;;;;;;;;4961602;28;94525;-74
2023/04/28 08:12:39;;;;;;;26.88;13.88;;;;;;;;;;4979548;28;93251;-74
2023/04/28 08:15:07;;;;;;;24.38;14.48;;;;;;;;;;4994479;28;94437;-74
2023/04/28 08:17:33;;;;;;;26.77;13.95;;;;;;;;;;4962493;28;92479;-74
2023/04/28 08:20:00;;;;;;;20.50;14.15;;;;;;;;;;4962411;28;94305;-72
2023/04/28 08:22:26;;;;;;;22.48;15.63;;;;;;;;;;4969223;28;92677;-75
2023/04/28 08:24:52;;;;;;;27.27;14.98;;;;;;;;;;4969366;28;92548;-76
2023/04/28 08:27:19;;;;;;;29.77;15.20;;;;;;;;;;4961573;28;93240;-76
2023/04/28 08:29:45;;;;;;;24.60;15.05;;;;;;;;;;4964395;28;95644;-75
2023/04/28 08:32:11;;;;;;;28.80;16.00;;;;;;;;;;4954895;28;92491;-75
2023/04/28 08:34:37;;;;;;;27.67;15.95;;;;;;;;;;4957714;28;94264;-75
2023/04/28 08:37:05;;;;;;;24.55;16.20;;;;;;;;;;4970593;28;93027;-75
2023/04/28 08:39:33;;;;;;;31.58;17.85;;;;;;;;;;4973655;28;92414;-75
2023/04/28 08:42:03;;;;;;;29.48;17.95;;;;;;;;;;4973335;28;93632;-76
2023/04/28 08:44:39;;;;;;;29.77;19.17;;;;;;;;;;4972015;28;92525;-74
2023/04/28 08:47:12;;;;;;;32.28;18.88;;;;;;;;;;4971545;28;93668;-75
2023/04/28 08:49:39;;;;;;;37.92;19.13;;;;;;;;;;4974310;28;94504;-76
2023/04/28 08:52:15;;;;;;;30.67;20.08;;;;;;;;;;4955228;28;92572;-76
2023/04/28 08:54:43;;;;;;;34.17;20.65;;;;;;;;;;4971060;28;94867;-73
2023/04/28 08:57:09;;;;;;;32.75;20.17;;;;;;;;;;4973761;28;93691;-73
2023/04/28 08:59:40;;;;;;;31.42;19.88;;;;;;;;;;4965855;28;93406;-76
2023/04/28 09:02:07;;;;;;;33.00;21.20;;;;;;;;;;4965860;28;94111;-75
2023/04/28 09:04:34;;;;;;;33.35;19.77;;;;;;;;;;4966189;28;94100;-75
2023/04/28 09:07:01;;;;;;;29.75;20.60;;;;;;;;;;4962455;28;93244;-75
2023/04/28 09:09:31;;;;;;;30.25;19.23;;;;;;;;;;4973749;28;93486;-75
2023/04/28 09:12:03;;;;;;;39.65;20.17;;;;;;;;;;4972969;28;92116;-75
2023/04/28 09:14:31;;;;;;;29.77;19.98;;;;;;;;;;4954374;28;92401;-75
2023/04/28 09:16:58;;;;;;;32.92;20.83;;;;;;;;;;4963111;28;93405;-74
2023/04/28 09:19:33;;;;;;;32.85;21.77;;;;;;;;;;4971540;28;96127;-73
2023/04/28 09:21:59;;;;;;;27.15;20.08;;;;;;;;;;4967584;28;93474;-73
2023/04/28 09:24:41;;;;;;;34.88;21.65;;;;;;;;;;4969185;28;92513;-74
2023/04/28 09:27:10;;;;;;;30.40;19.92;;;;;;;;;;4973813;28;94089;-74
2023/04/28 09:29:37;;;;;;;35.75;20.83;;;;;;;;;;4959834;28;93481;-73
2023/04/28 09:32:20;;;;;;;31.15;21.30;;;;;;;;;;4966712;28;93124;-74
2023/04/28 09:34:50;;;;;;;27.20;19.65;;;;;;;;;;4968598;28;93687;-75
2023/04/28 09:37:17;;;;;;;38.20;22.85;;;;;;;;;;4962676;28;92742;-76
2023/04/28 09:39:44;;;;;;;37.92;23.38;;;;;;;;;;4964994;28;92496;-76
2023/04/28 09:42:29;;;;;;;42.03;21.95;;;;;;;;;;4954047;28;94418;-76
2023/04/28 09:44:56;;;;;;;32.17;21.85;;;;;;;;;;4957729;28;94945;-76
2023/04/28 09:47:23;;;;;;;35.75;23.83;;;;;;;;;;4971794;28;96065;-76
2023/04/28 09:49:56;;;;;;;34.13;23.38;;;;;;;;;;4966056;28;93466;-75
2023/04/28 09:52:23;;;;;;;35.35;24.08;;;;;;;;;;4953566;28;92346;-74
2023/04/28 09:54:50;;;;;;;40.50;25.25;;;;;;;;;;4972704;28;94565;-75
2023/04/28 09:57:21;;;;;;;32.97;23.50;;;;;;;;;;4973036;28;93726;-76
2023/04/28 09:59:50;;;;;;;28.95;21.38;;;;;;;;;;4973210;28;92579;-75
2023/04/28 10:02:17;;;;;;;29.55;20.83;;;;;;;;;;4966702;28;93598;-75
2023/04/28 10:05:04;;;;;;;32.70;18.98;;;;;;;;;;4953780;28;92906;-75
2023/04/28 10:07:33;;;;;;;29.45;20.60;;;;;;;;;;4965835;28;94385;-75
2023/04/28 10:10:00;;;;;;;23.75;17.58;;;;;;;;;;4971379;28;96075;-75
2023/04/28 10:12:27;;;;;;;24.52;19.17;;;;;;;;;;4971528;28;92582;-74
2023/04/28 10:14:53;;;;;;;28.02;17.95;;;;;;;;;;4960282;28;93271;-75
2023/04/28 10:17:20;;;;;;;26.90;16.77;;;;;;;;;;4964332;28;93954;-75
2023/04/28 10:19:49;;;;;;;23.58;17.10;;;;;;;;;;4966442;28;92487;-74
2023/04/28 10:22:34;;;;;;;24.98;18.45;;;;;;;;;;4967931;28;94400;-74
2023/04/28 10:25:13;;;;;;;22.98;17.90;;;;;;;;;;4964914;28;94939;-75
2023/04/28 10:27:40;;;;;;;25.08;18.17;;;;;;;;;;4973673;28;93147;-75
2023/04/28 10:30:10;;;;;;;23.80;17.30;;;;;;;;;;4955510;28;94464;-75
2023/04/28 10:33:10;;;;;;;23.98;17.60;;;;;;;;;;4968448;28;92535;-75
2023/04/28 10:35:43;;;;;;;24.90;16.23;;;;;;;;;;4956665;28;94893;-75
2023/04/28 10:38:17;;;;;;;22.52;17.40;;;;;;;;;;4965319;28;94543;-76
2023/04/28 10:40:44;;;;;;;23.42;16.40;;;;;;;;;;4959524;28;92581;-76
2023/04/28 10:43:11;;;;;;;26.85;16.83;;;;;;;;;;4972023;28;93220;-75
2023/04/28 10:45:58;;;;;;;22.52;17.13;;;;;;;;;;4971834;28;94527;-75
2023/04/28 10:48:25;;;;;;;23.55;17.52;;;;;;;;;;4967368;28;92530;-73
2023/04/28 10:53:42;;;;;;;24.67;17.05;;;;;;;;;;4964692;28;91710;-75
2023/04/28 10:56:12;;;;;;;27.00;17.58;;;;;;;;;;4975172;28;92500;-77
2023/04/28 10:58:41;;;;;;;26.10;17.37;;;;;;;;;;4974480;28;93248;-76
2023/04/28 11:01:23;;;;;;;25.20;17.45;;;;;;;;;;4973262;28;94900;-75
2023/04/28 11:04:03;;;;;;;20.85;16.02;;;;;;;;;;4975759;28;95863;-75
2023/04/28 11:06:33;;;;;;;21.40;16.52;;;;;;;;;;4975607;28;93568;-74
2023/04/28 11:09:02;;;;;;;22.92;17.17;;;;;;;;;;4974788;28;92819;-74
2023/04/28 11:11:29;;;;;;;30.23;18.73;;;;;;;;;;4979444;28;93323;-76
2023/04/28 11:14:14;;;;;;;27.40;19.00;;;;;;;;;;4974597;28;92474;-75
2023/04/28 11:16:48;;;;;;;27.98;18.35;;;;;;;;;;4962574;28;93560;-74
2023/04/28 11:19:16;;;;;;;30.70;19.70;;;;;;;;;;4975242;28;92646;-75
2023/04/28 11:21:43;;;;;;;28.33;20.10;;;;;;;;;;4965617;28;92372;-75
2023/04/28 11:24:10;;;;;;;33.85;22.00;;;;;;;;;;4955973;28;93214;-76
2023/04/28 11:26:37;;;;;;;34.83;21.25;;;;;;;;;;4968390;28;96056;-76
2023/04/28 11:29:03;;;;;;;36.00;21.85;;;;;;;;;;4957474;28;93309;-76
2023/04/28 11:31:30;;;;;;;33.83;20.88;;;;;;;;;;4959829;28;93550;-77
2023/04/28 11:33:59;;;;;;;29.00;18.67;;;;;;;;;;4978083;28;94048;-76
2023/04/28 11:36:27;;;;;;;29.52;18.00;;;;;;;;;;4973953;28;94769;-76
2023/04/28 11:38:55;;;;;;;26.50;16.02;;;;;;;;;;4974671;28;94605;-76
2023/04/28 11:41:21;;;;;;;21.42;13.30;;;;;;;;;;4975495;28;92455;-75
2023/04/28 11:43:48;;;;;;;17.35;11.60;;;;;;;;;;4975730;28;93714;-76
2023/04/28 11:46:17;;;;;;;16.10;11.82;;;;;;;;;;4974816;28;92874;-75
2023/04/28 11:48:44;;;;;;;19.48;12.45;;;;;;;;;;4974246;28;92790;-75
2023/04/28 11:51:26;;;;;;;15.20;10.25;;;;;;;;;;4972214;28;94796;-75
2023/04/28 11:53:52;;;;;;;17.48;11.05;;;;;;;;;;4975027;28;93336;-76
2023/04/28 11:56:19;;;;;;;24.92;11.52;;;;;;;;;;4961808;28;94365;-75
2023/04/28 11:58:45;;;;;;;18.67;11.95;;;;;;;;;;4971636;28;92558;-75
2023/04/28 12:01:14;;;;;;;19.30;11.90;;;;;;;;;;4968999;28;92465;-74
2023/04/28 12:03:46;;;;;;;15.85;10.05;;;;;;;;;;4969181;28;93337;-72
2023/04/28 12:06:17;;;;;;;16.58;10.20;;;;;;;;;;4967063;28;93565;-76
2023/04/28 12:08:44;;;;;;;;;;;;;;;;;;4964791;28;93394;-75
2023/04/28 12:11:14;;;;;;;16.63;9.80;;;;;;;;;;4968983;28;122815;-76
2023/04/28 12:13:42;;;;;;;23.58;10.55;;;;;;;;;;4955839;28;93537;-75
2023/04/28 12:16:08;;;;;;;18.05;11.10;;;;;;;;;;4969062;28;94860;-76
2023/04/28 12:18:35;;;;;;;15.38;9.00;;;;;;;;;;4972843;28;93579;-76
2023/04/28 12:21:02;;;;;;;18.70;10.35;;;;;;;;;;4964917;28;92762;-75
2023/04/28 12:23:30;;;;;;;16.77;10.70;;;;;;;;;;4968221;28;93227;-76
2023/04/28 12:25:57;;;;;;;17.50;11.15;;;;;;;;;;4972861;28;93496;-74
2023/04/28 12:28:35;;;;;;;15.05;8.90;;;;;;;;;;4955165;28;93263;-76
2023/04/28 12:31:05;;;;;;;11.07;7.60;;;;;;;;;;4972627;28;93143;-76
2023/04/28 12:33:36;;;;;;;10.13;6.80;;;;;;;;;;4975395;28;92861;-76
2023/04/28 12:36:04;;;;;;;11.48;7.50;;;;;;;;;;4975178;28;92398;-76
2023/04/28 12:38:31;;;;;;;11.95;7.05;;;;;;;;;;4977762;28;93461;-76
2023/04/28 12:40:58;;;;;;;9.93;5.90;;;;;;;;;;4960542;28;95033;-75
2023/04/28 12:43:25;;;;;;;7.93;5.15;;;;;;;;;;4958594;28;95495;-75
2023/04/28 12:45:53;;;;;;;5.10;3.95;;;;;;;;;;4974308;28;93512;-76
2023/04/28 12:48:19;;;;;;;8.82;3.67;;;;;;;;;;4975484;28;92488;-75
2023/04/28 12:50:46;;;;;;;5.03;3.17;;;;;;;;;;4973537;28;93078;-75
2023/04/28 12:53:12;;;;;;;7.35;3.55;;;;;;;;;;4975120;28;93517;-74
2023/04/28 12:55:39;;;;;;;6.05;4.38;;;;;;;;;;4969484;28;92905;-74
2023/04/28 12:58:05;;;;;;;7.53;4.75;;;;;;;;;;4971273;28;94298;-74
2023/04/28 13:00:32;;;;;;;6.88;4.65;;;;;;;;;;4976881;28;93424;-75
2023/04/28 13:02:58;;;;;;;3.47;3.17;;;;;;;;;;4964738;28;93682;-74
2023/04/28 13:05:24;;;;;;;4.82;3.20;;;;;;;;;;4964935;28;96984;-74
2023/04/28 13:07:52;;;;;;;3.55;3.20;;;;;;;;;;4966173;28;92445;-74
2023/04/28 13:10:20;;;;;;;3.00;2.70;;;;;;;;;;4971591;28;93150;-73
2023/04/28 13:12:46;;;;;;;3.00;2.80;;;;;;;;;;4957133;28;93251;-74
2023/04/28 13:15:12;;;;;;;2.92;2.72;;;;;;;;;;4964600;28;92506;-75
2023/04/28 13:17:39;;;;;;;5.18;3.22;;;;;;;;;;4974979;28;93091;-73
2023/04/28 13:20:06;;;;;;;3.95;3.55;;;;;;;;;;4973925;28;93560;-74
2023/04/28 13:22:32;;;;;;;4.18;3.88;;;;;;;;;;4965766;28;91794;-72
2023/04/28 13:24:59;;;;;;;4.35;3.95;;;;;;;;;;4964477;28;93616;-73
2023/04/28 13:27:25;;;;;;;5.82;4.72;;;;;;;;;;4973846;28;92709;-73
2023/04/28 13:29:52;;;;;;;5.32;4.82;;;;;;;;;;4972960;28;95134;-74
2023/04/28 13:32:18;;;;;;;7.85;5.15;;;;;;;;;;4973550;28;94421;-74
2023/04/28 13:34:44;;;;;;;8.07;5.20;;;;;;;;;;4966064;28;92753;-76
2023/04/28 13:37:12;;;;;;;7.15;5.80;;;;;;;;;;4973948;28;92988;-73
2023/04/28 13:39:38;;;;;;;5.82;5.32;;;;;;;;;;4966483;28;93447;-75
2023/04/28 13:42:06;;;;;;;4.88;4.47;;;;;;;;;;4958468;28;92469;-74
2023/04/28 13:44:33;;;;;;;6.13;5.55;;;;;;;;;;4960266;28;93139;-73
2023/04/28 13:47:00;;;;;;;7.43;6.80;;;;;;;;;;4967497;28;91722;-73
2023/04/28 13:49:26;;;;;;;6.95;6.13;;;;;;;;;;4955264;28;92421;-72
2023/04/28 13:51:53;;;;;;;8.40;7.30;;;;;;;;;;4954170;28;93281;-72
2023/04/28 13:54:20;;;;;;;7.18;5.97;;;;;;;;;;4952914;28;94913;-72
2023/04/28 13:56:46;;;;;;;9.18;5.80;;;;;;;;;;4955685;28;95648;-74
2023/04/28 13:59:12;;;;;;;6.07;5.57;;;;;;;;;;4963191;28;93884;-75
2023/04/28 14:01:39;;;;;;;6.43;5.70;;;;;;;;;;4954561;28;92469;-75
2023/04/28 14:04:05;;;;;;;5.97;5.40;;;;;;;;;;4970615;28;93342;-74
2023/04/28 14:06:33;;;;;;;5.47;4.97;;;;;;;;;;4971022;28;92739;-75
2023/04/28 14:09:00;;;;;;;7.50;6.80;;;;;;;;;;4973979;28;93122;-76
2023/04/28 14:11:26;;;;;;;6.07;5.57;;;;;;;;;;4963733;28;92852;-74
2023/04/28 14:13:53;;;;;;;6.80;5.43;;;;;;;;;;4954092;28;92376;-74
2023/04/28 14:16:19;;;;;;;4.20;3.50;;;;;;;;;;4960216;28;93140;-74
2023/04/28 14:18:46;;;;;;;3.88;3.33;;;;;;;;;;4976540;28;95896;-76
2023/04/28 14:21:12;;;;;;;4.35;3.95;;;;;;;;;;4970829;28;92547;-76
2023/04/28 14:23:38;;;;;;;4.95;4.55;;;;;;;;;;4967077;28;93173;-75
2023/04/28 14:26:05;;;;;;;6.72;4.82;;;;;;;;;;4974902;28;93441;-75
2023/04/28 14:28:32;;;;;;;8.52;4.35;;;;;;;;;;4957290;28;92435;-76
2023/04/28 14:31:02;;;;;;;8.23;4.95;;;;;;;;;;4970942;28;93336;-75
2023/04/28 14:33:28;;;;;;;9.63;5.63;;;;;;;;;;4976181;28;92452;-75
2023/04/28 14:35:54;;;;;;;6.63;4.93;;;;;;;;;;4977510;28;93128;-76